KBTL

W K Kellogg Airport

Battle Creek, Michigan, USA
METAR KBTL 212253Z 08005KT 10SM CLR 23/13 A2983 RMK AO2 SLP096 T02330133 $
Observed Flight Rules
Jun-21 @ 22:53 UTC (an hour ago) Visual Flight Rules
Wind Visibility Clouds
80° at 5 knots 10 miles
  • Clear skies
Temperatures Readings
Current 23°C / 73°F
Dewpoint 13°C / 55°F
Humidity 53%
Altimeter 29.83" Hg
Pressure 1009.6 hPa
Elevation 290
METAR KBTL 212253Z 08005KT 10SM CLR 23/13 A2983 RMK AO2 SLP096 T02330133 $
Observed Flight Rules
Jun-21 @ 22:53 UTC
(an hour ago)
VFR
Wind Visibility
80° at 5 knots 10 miles
Clouds
  • Clear skies
Temperature Dewpoint
23°C / 73°F 13°C / 55°F
Humidity Altimeter Pressure
53% 29.83" Hg 1009.6 hPa